createdAt,value
2022-12-14T00:03:03.280Z,102.70
2022-12-14T00:13:14.877Z,113.30
2022-12-14T00:23:22.236Z,101.60
2022-12-14T00:33:29.835Z,95.60
2022-12-14T00:43:37.059Z,97.80
2022-12-14T00:53:45.239Z,96.50
2022-12-14T01:04:12.445Z,92.30
2022-12-14T01:14:22.127Z,89.30
2022-12-14T01:24:29.265Z,91.10
2022-12-14T01:34:36.450Z,84.60
2022-12-14T01:44:57.473Z,85.40
2022-12-14T01:55:08.492Z,86.60
2022-12-14T02:05:18.215Z,85.10
2022-12-14T02:15:26.057Z,79.30
2022-12-14T02:26:06.880Z,64.70
2022-12-14T02:36:22.488Z,73.50
2022-12-14T02:46:30.401Z,69.90
2022-12-14T02:56:41.039Z,48.80
2022-12-14T03:06:52.540Z,65.60
2022-12-14T03:17:01.478Z,64.00
2022-12-14T03:27:06.245Z,61.30
2022-12-14T03:37:17.239Z,54.30
2022-12-14T03:47:27.659Z,54.80
2022-12-14T03:57:38.266Z,54.30
2022-12-14T04:07:48.498Z,55.30
2022-12-14T04:18:14.026Z,57.60
2022-12-14T04:28:33.040Z,54.70
2022-12-14T04:38:43.972Z,41.60
2022-12-14T04:48:56.966Z,37.40
2022-12-14T04:59:04.549Z,34.00
2022-12-14T05:09:16.391Z,32.00
2022-12-14T05:19:23.711Z,29.20
2022-12-14T05:29:30.819Z,30.40
2022-12-14T05:39:38.173Z,30.50
2022-12-14T05:49:45.260Z,26.80
2022-12-14T05:59:56.828Z,31.40
2022-12-14T06:10:04.105Z,28.60
2022-12-14T06:20:13.009Z,31.90
2022-12-14T06:30:19.453Z,31.60
2022-12-14T06:40:26.506Z,33.20
2022-12-14T06:50:33.806Z,38.10
2022-12-14T07:00:41.071Z,39.00
2022-12-14T07:10:48.093Z,44.40
2022-12-14T07:20:57.378Z,40.90
2022-12-14T07:31:05.557Z,50.80
2022-12-14T07:41:21.850Z,50.60
2022-12-14T07:51:31.983Z,74.00
2022-12-14T08:01:39.419Z,63.40
2022-12-14T08:11:46.980Z,58.40
2022-12-14T08:21:54.227Z,66.20
2022-12-14T08:32:01.420Z,66.30
2022-12-14T08:42:08.664Z,126.90
2022-12-14T08:52:16.615Z,108.20
2022-12-14T09:02:24.144Z,101.40
2022-12-14T09:12:30.783Z,76.70
2022-12-14T09:22:38.085Z,66.70
2022-12-14T09:32:45.335Z,70.00
2022-12-14T09:42:58.451Z,57.90
2022-12-14T09:53:12.458Z,50.60
2022-12-14T10:03:26.311Z,57.10
2022-12-14T10:13:35.436Z,59.00
2022-12-14T10:23:43.016Z,61.60
2022-12-14T10:33:51.702Z,63.60
2022-12-14T10:44:01.272Z,69.00
2022-12-14T10:54:09.491Z,69.70
2022-12-14T11:04:15.200Z,79.50
2022-12-14T11:14:26.902Z,75.10
2022-12-14T11:24:35.867Z,78.30
2022-12-14T11:34:44.130Z,80.20
2022-12-14T11:44:53.462Z,71.00
2022-12-14T11:55:19.157Z,61.70
2022-12-14T12:05:32.367Z,42.10
2022-12-14T12:15:42.594Z,50.70
2022-12-14T12:26:00.375Z,56.30
2022-12-14T12:36:06.871Z,57.70
2022-12-14T12:46:17.504Z,50.30
2022-12-14T12:56:28.457Z,47.60
2022-12-14T13:06:41.177Z,44.40
2022-12-14T13:16:51.678Z,51.90
2022-12-14T13:27:17.133Z,37.90
2022-12-14T13:37:49.532Z,40.70
2022-12-14T13:47:59.084Z,41.40
2022-12-14T13:58:10.442Z,47.90
2022-12-14T14:08:41.420Z,41.70
2022-12-14T14:18:59.922Z,35.80
2022-12-14T14:29:19.983Z,33.50
2022-12-14T14:40:04.585Z,33.50
2022-12-14T15:00:28.427Z,30.40
2022-12-14T15:10:43.224Z,28.40
2022-12-14T15:20:52.102Z,31.00
2022-12-14T15:31:00.243Z,29.80
2022-12-14T15:41:15.649Z,28.50
2022-12-14T15:51:25.779Z,34.20
2022-12-14T16:01:31.853Z,38.50
2022-12-14T16:11:42.382Z,40.60
2022-12-14T16:32:01.156Z,36.00
2022-12-14T16:42:18.872Z,37.50
2022-12-14T16:52:26.209Z,52.00
2022-12-14T17:02:31.409Z,44.50
2022-12-14T17:12:39.571Z,50.10
2022-12-14T17:22:49.742Z,41.40
2022-12-14T17:43:05.474Z,42.90
2022-12-14T17:53:12.524Z,52.00
2022-12-14T18:03:20.556Z,48.10
2022-12-14T18:13:31.520Z,54.80
2022-12-14T18:23:39.204Z,47.10
2022-12-14T18:33:45.548Z,54.50
2022-12-14T18:43:54.360Z,48.10
2022-12-14T18:54:04.137Z,45.30
2022-12-14T19:04:11.410Z,44.70
2022-12-14T19:14:18.640Z,41.50
2022-12-14T19:24:25.622Z,39.60
2022-12-14T19:34:32.815Z,42.10
2022-12-14T19:44:38.869Z,41.70
2022-12-14T19:54:45.983Z,47.00
2022-12-14T20:04:53.095Z,46.70
2022-12-14T20:15:00.172Z,65.70
2022-12-14T20:25:08.516Z,55.70
2022-12-14T20:35:15.158Z,49.50
2022-12-14T20:45:22.299Z,59.90
2022-12-14T20:55:29.508Z,51.90
2022-12-14T21:05:40.042Z,55.30
2022-12-14T21:15:47.523Z,58.40
2022-12-14T21:36:01.234Z,55.30
2022-12-14T21:46:06.112Z,55.30
2022-12-14T21:56:30.988Z,58.40
2022-12-14T22:06:38.337Z,66.40
2022-12-14T22:26:52.663Z,63.50
2022-12-14T22:36:59.630Z,79.30
2022-12-14T22:47:06.770Z,67.40
2022-12-14T22:57:18.543Z,73.80
2022-12-14T23:07:25.575Z,80.90
2022-12-14T23:17:48.978Z,84.60
2022-12-14T23:28:13.937Z,75.80
2022-12-14T23:38:38.615Z,76.20
2022-12-14T23:49:03.996Z,87.00
2022-12-14T23:59:32.455Z,83.40
